createdAt,value
2023-08-25T00:01:59.343Z,99495.78
2023-08-25T00:04:26.159Z,99488.69
2023-08-25T00:06:52.891Z,99482.50
2023-08-25T00:09:19.711Z,99473.38
2023-08-25T00:11:46.474Z,99479.53
2023-08-25T00:14:13.264Z,99478.03
2023-08-25T00:16:39.969Z,99475.41
2023-08-25T00:19:06.683Z,99475.88
2023-08-25T00:21:33.458Z,99476.78
2023-08-25T00:24:00.154Z,99477.09
2023-08-25T00:26:26.865Z,99483.66
2023-08-25T00:28:53.558Z,99488.66
2023-08-25T00:31:20.367Z,99485.91
2023-08-25T00:33:50.975Z,99481.38
2023-08-25T00:36:18.308Z,99482.09
2023-08-25T00:38:45.059Z,99492.81
2023-08-25T00:41:11.914Z,99504.47
2023-08-25T00:43:40.408Z,99502.94
2023-08-25T00:46:07.319Z,99503.63
2023-08-25T00:48:34.604Z,99498.91
2023-08-25T00:51:01.381Z,99493.47
2023-08-25T00:53:28.191Z,99484.38
2023-08-25T00:55:55.291Z,99476.63
2023-08-25T00:58:22.509Z,99472.75
2023-08-25T01:00:49.719Z,99470.09
2023-08-25T01:03:16.593Z,99468.25
2023-08-25T01:05:43.428Z,99465.63
2023-08-25T01:08:10.293Z,99470.72
2023-08-25T01:10:54.968Z,99464.41
2023-08-25T01:13:28.160Z,99459.97
2023-08-25T01:15:55.941Z,99461.78
2023-08-25T01:18:30.097Z,99454.94
2023-08-25T01:20:57.207Z,99444.97
2023-08-25T01:23:33.358Z,99440.75
2023-08-25T01:26:00.347Z,99448.34
2023-08-25T01:28:27.814Z,99448.34
2023-08-25T01:30:57.483Z,99455.38
2023-08-25T01:33:24.472Z,99463.41
2023-08-25T01:36:17.265Z,99464.94
2023-08-25T01:38:48.461Z,99474.13
2023-08-25T01:41:19.918Z,99479.53
2023-08-25T01:43:51.413Z,99473.53
2023-08-25T01:46:19.306Z,99478.88
2023-08-25T01:48:48.365Z,99471.94
2023-08-25T01:51:15.602Z,99460.91
2023-08-25T01:53:45.804Z,99461.22
2023-08-25T01:56:12.483Z,99450.47
2023-08-25T01:58:39.205Z,99448.03
2023-08-25T02:01:05.967Z,99437.59
2023-08-25T02:03:32.633Z,99439.44
2023-08-25T02:05:59.463Z,99430.63
2023-08-25T02:08:26.251Z,99432.50
2023-08-25T02:10:53.450Z,99422.56
2023-08-25T02:13:21.055Z,99420.63
2023-08-25T02:15:50.551Z,99416.91
2023-08-25T02:18:17.474Z,99415.31
2023-08-25T02:20:44.228Z,99413.81
2023-08-25T02:23:10.971Z,99412.25
2023-08-25T02:25:37.817Z,99419.56
2023-08-25T02:28:04.807Z,99419.56
2023-08-25T02:30:31.919Z,99408.94
2023-08-25T02:33:00.188Z,99421.19
2023-08-25T02:35:26.885Z,99415.00
2023-08-25T02:38:12.239Z,99401.25
2023-08-25T02:40:39.254Z,99397.38
2023-08-25T02:43:06.816Z,99391.19
2023-08-25T02:45:34.568Z,99395.75
2023-08-25T02:48:01.997Z,99401.16
2023-08-25T02:50:28.845Z,99411.06
2023-08-25T02:52:55.598Z,99418.66
2023-08-25T02:55:23.080Z,99438.09
2023-08-25T02:57:51.184Z,99455.25
2023-08-25T03:00:26.794Z,99459.88
2023-08-25T03:02:54.368Z,99466.75
2023-08-25T03:05:23.117Z,99489.59
2023-08-25T03:07:53.994Z,99507.09
2023-08-25T03:10:21.273Z,99488.28
2023-08-25T03:12:47.967Z,99479.00
2023-08-25T03:15:14.774Z,99482.34
2023-08-25T03:17:42.704Z,99476.88
2023-08-25T03:20:10.049Z,99477.59
2023-08-25T03:22:36.804Z,99479.50
2023-08-25T03:25:04.012Z,99487.38
2023-08-25T03:27:33.966Z,99498.38
2023-08-25T03:30:00.800Z,99499.91
2023-08-25T03:32:27.569Z,99497.56
2023-08-25T03:34:54.391Z,99499.97
2023-08-25T03:37:21.146Z,99498.81
2023-08-25T03:39:47.861Z,99504.06
2023-08-25T03:42:14.607Z,99503.94
2023-08-25T03:44:41.393Z,99519.97
2023-08-25T03:47:08.091Z,99522.09
2023-08-25T03:49:35.486Z,99528.91
2023-08-25T03:52:02.263Z,99540.31
2023-08-25T03:54:32.424Z,99593.03
2023-08-25T03:56:59.643Z,99571.13
2023-08-25T03:59:26.388Z,99537.25
2023-08-25T04:01:53.257Z,99536.16
2023-08-25T04:04:20.007Z,99540.56
2023-08-25T04:06:46.801Z,99540.88
2023-08-25T04:09:14.573Z,99518.41
2023-08-25T04:11:41.382Z,99522.97
2023-08-25T04:14:08.116Z,99519.34
2023-08-25T04:16:34.881Z,99518.94
2023-08-25T04:19:03.144Z,99509.78
2023-08-25T04:21:30.211Z,99504.41
2023-08-25T04:23:56.973Z,99500.50
2023-08-25T04:26:23.827Z,99495.06
2023-08-25T04:28:50.610Z,99484.97
2023-08-25T04:31:17.373Z,99488.28
2023-08-25T04:33:44.629Z,99472.50
2023-08-25T04:36:13.646Z,99471.69
2023-08-25T04:38:40.421Z,99467.06
2023-08-25T04:41:07.155Z,99464.06
2023-08-25T04:43:34.096Z,99449.34
2023-08-25T04:46:00.922Z,99452.91
2023-08-25T04:48:27.734Z,99443.03
2023-08-25T04:50:54.475Z,99438.38
2023-08-25T04:53:21.160Z,99440.22
2023-08-25T04:55:48.256Z,99436.56
2023-08-25T04:58:15.041Z,99438.69
2023-08-25T05:00:41.955Z,99448.69
2023-08-25T05:03:10.432Z,99458.31
2023-08-25T05:05:37.218Z,99451.97
2023-08-25T05:08:04.135Z,99437.31
2023-08-25T05:10:30.828Z,99425.00
2023-08-25T05:12:57.548Z,99438.84
2023-08-25T05:15:24.270Z,99435.06
2023-08-25T05:17:51.146Z,99447.72
2023-08-25T05:20:23.707Z,99451.09
2023-08-25T05:22:52.096Z,99444.03
2023-08-25T05:25:22.402Z,99430.47
2023-08-25T05:27:49.133Z,99388.28
2023-08-25T05:30:17.682Z,99396.50
2023-08-25T05:32:44.644Z,99421.03
2023-08-25T05:35:12.301Z,99417.50
2023-08-25T05:37:39.126Z,99418.03
2023-08-25T05:40:08.259Z,99413.19
2023-08-25T05:42:36.859Z,99431.78
2023-08-25T05:45:04.706Z,99430.72
2023-08-25T05:47:31.481Z,99444.66
2023-08-25T05:49:58.437Z,99448.28
2023-08-25T05:52:25.375Z,99447.53
2023-08-25T05:54:52.151Z,99455.59
2023-08-25T05:57:18.973Z,99457.44
2023-08-25T05:59:45.684Z,99457.34
2023-08-25T06:02:12.430Z,99448.59
2023-08-25T06:04:39.193Z,99445.16
2023-08-25T06:07:05.908Z,99448.31
2023-08-25T06:09:32.686Z,99451.59
2023-08-25T06:12:00.968Z,99433.00
2023-08-25T06:14:27.823Z,99428.81
2023-08-25T06:16:59.997Z,99407.28
2023-08-25T06:19:26.790Z,99428.19
2023-08-25T06:21:53.501Z,99436.00
2023-08-25T06:24:20.220Z,99438.91
2023-08-25T06:26:47.051Z,99434.81
2023-08-25T06:29:13.778Z,99452.84
2023-08-25T06:31:40.507Z,99447.25
2023-08-25T06:34:07.325Z,99441.97
2023-08-25T06:36:34.127Z,99429.94
2023-08-25T06:39:01.398Z,99432.56
2023-08-25T06:41:28.205Z,99440.25
2023-08-25T06:43:57.863Z,99445.28
2023-08-25T06:46:24.687Z,99447.38
2023-08-25T06:48:51.564Z,99450.25
2023-08-25T06:51:18.418Z,99449.13
2023-08-25T06:53:45.283Z,99440.81
2023-08-25T06:56:12.117Z,99441.38
2023-08-25T06:58:38.953Z,99448.78
2023-08-25T07:01:05.881Z,99438.56
2023-08-25T07:03:34.993Z,99445.47
2023-08-25T07:06:02.339Z,99461.28
2023-08-25T07:08:29.331Z,99452.38
2023-08-25T07:10:56.757Z,99439.19
2023-08-25T07:13:23.558Z,99450.28
2023-08-25T07:15:50.801Z,99471.31
2023-08-25T07:18:17.671Z,99475.97
2023-08-25T07:20:44.545Z,99472.16
2023-08-25T07:23:11.326Z,99477.03
2023-08-25T07:25:39.716Z,99480.63
2023-08-25T07:28:06.538Z,99480.81
2023-08-25T07:30:37.707Z,99482.28
2023-08-25T07:33:06.911Z,99468.31
2023-08-25T07:35:36.427Z,99480.28
2023-08-25T07:38:04.090Z,99473.69
2023-08-25T07:40:32.716Z,99480.28
2023-08-25T07:43:04.049Z,99469.25
2023-08-25T07:45:32.015Z,99469.06
2023-08-25T07:48:02.612Z,99465.97
2023-08-25T07:50:30.500Z,99463.63
2023-08-25T07:52:57.996Z,99459.72
2023-08-25T07:55:25.385Z,99456.19
2023-08-25T07:57:53.241Z,99446.50
2023-08-25T08:00:20.487Z,99443.66
2023-08-25T08:02:49.037Z,99441.50
2023-08-25T08:05:18.016Z,99454.09
2023-08-25T08:07:49.443Z,99452.00
2023-08-25T08:10:18.756Z,99450.34
2023-08-25T08:12:46.594Z,99439.47
2023-08-25T08:15:14.298Z,99452.03
2023-08-25T08:17:41.745Z,99448.09
2023-08-25T08:20:14.130Z,99449.13
2023-08-25T08:22:42.880Z,99462.03
2023-08-25T08:25:11.849Z,99451.41
2023-08-25T08:27:40.629Z,99463.63
2023-08-25T08:30:08.450Z,99460.97
2023-08-25T08:32:36.566Z,99464.06
2023-08-25T08:35:10.378Z,99457.16
2023-08-25T08:37:37.658Z,99460.69
2023-08-25T08:40:09.487Z,99455.69
2023-08-25T08:42:37.575Z,99456.59
2023-08-25T08:45:08.326Z,99450.69
2023-08-25T08:47:38.912Z,99443.25
2023-08-25T08:50:10.109Z,99443.38
2023-08-25T08:52:37.109Z,99452.81
2023-08-25T08:55:07.295Z,99448.88
2023-08-25T08:57:34.120Z,99450.25
2023-08-25T09:00:01.294Z,99455.50
2023-08-25T09:02:30.168Z,99455.19
2023-08-25T09:05:00.372Z,99454.81
2023-08-25T09:07:32.521Z,99456.78
2023-08-25T09:10:00.279Z,99454.31
2023-08-25T09:12:27.523Z,99451.16
2023-08-25T09:14:54.396Z,99458.00
2023-08-25T09:17:22.830Z,99458.16
2023-08-25T09:19:49.814Z,99450.28
2023-08-25T09:22:17.699Z,99440.66
2023-08-25T09:24:45.267Z,99448.81
2023-08-25T09:27:23.990Z,99442.16
2023-08-25T09:30:00.919Z,99445.84
2023-08-25T09:32:29.662Z,99439.69
2023-08-25T09:34:57.150Z,99444.53
2023-08-25T09:37:40.859Z,99441.34
2023-08-25T09:40:20.645Z,99442.81
2023-08-25T09:42:47.486Z,99443.16
2023-08-25T09:45:14.373Z,99436.69
2023-08-25T09:47:44.647Z,99441.34
2023-08-25T09:50:16.729Z,99438.28
2023-08-25T09:52:45.390Z,99441.72
2023-08-25T09:55:12.713Z,99441.56
2023-08-25T09:57:39.642Z,99435.59
2023-08-25T10:00:09.669Z,99426.09
2023-08-25T10:02:36.476Z,99427.81
2023-08-25T10:05:04.664Z,99424.41
2023-08-25T10:07:32.618Z,99431.69
2023-08-25T10:09:59.382Z,99425.94
2023-08-25T10:12:26.622Z,99423.00
2023-08-25T10:14:54.238Z,99420.72
2023-08-25T10:17:21.090Z,99423.94
2023-08-25T10:19:50.888Z,99417.75
2023-08-25T10:22:18.376Z,99411.47
2023-08-25T10:24:46.203Z,99413.88
2023-08-25T10:27:13.118Z,99407.88
2023-08-25T10:29:39.973Z,99408.94
2023-08-25T10:32:06.889Z,99411.91
2023-08-25T10:34:33.871Z,99417.41
2023-08-25T10:37:13.960Z,99411.56
2023-08-25T10:40:00.732Z,99414.94
2023-08-25T10:42:31.488Z,99412.66
2023-08-25T10:45:14.656Z,99409.47
2023-08-25T10:47:48.906Z,99408.16
2023-08-25T10:50:21.763Z,99404.59
2023-08-25T10:52:51.392Z,99404.84
2023-08-25T10:55:29.625Z,99403.34
2023-08-25T10:58:04.422Z,99406.13
2023-08-25T11:00:37.304Z,99408.84
2023-08-25T11:03:04.884Z,99402.88
2023-08-25T11:05:42.355Z,99402.94
2023-08-25T11:08:26.321Z,99399.03
2023-08-25T11:11:13.543Z,99404.03
2023-08-25T11:13:41.728Z,99409.53
2023-08-25T11:16:11.086Z,99399.22
2023-08-25T11:18:40.628Z,99398.47
2023-08-25T11:21:07.394Z,99402.56
2023-08-25T11:23:42.394Z,99403.19
2023-08-25T11:26:09.834Z,99400.06
2023-08-25T11:28:38.047Z,99407.09
2023-08-25T11:31:05.433Z,99405.69
2023-08-25T11:33:33.491Z,99393.41
2023-08-25T11:36:04.559Z,99399.69
2023-08-25T11:38:34.386Z,99393.91
2023-08-25T11:41:01.217Z,99399.13
2023-08-25T11:43:33.764Z,99396.91
2023-08-25T11:46:01.128Z,99399.81
2023-08-25T11:48:28.047Z,99391.63
2023-08-25T11:50:54.845Z,99388.88
2023-08-25T11:53:21.611Z,99387.84
2023-08-25T11:56:01.930Z,99393.09
2023-08-25T11:58:35.320Z,99395.28
2023-08-25T12:01:03.614Z,99396.09
2023-08-25T12:03:30.501Z,99397.38
2023-08-25T12:05:57.385Z,99398.53
2023-08-25T12:08:26.134Z,99393.38
2023-08-25T12:10:56.608Z,99395.97
2023-08-25T12:13:33.139Z,99389.88
2023-08-25T12:16:00.018Z,99392.78
2023-08-25T12:18:37.498Z,99393.34
2023-08-25T12:21:06.725Z,99394.28
2023-08-25T12:23:38.231Z,99384.88
2023-08-25T12:26:06.420Z,99388.28
2023-08-25T12:28:33.596Z,99383.19
2023-08-25T12:31:01.646Z,99383.13
2023-08-25T12:33:29.140Z,99376.16
2023-08-25T12:35:56.169Z,99380.75
2023-08-25T12:38:22.933Z,99382.16
2023-08-25T12:40:49.660Z,99370.63
2023-08-25T12:43:16.568Z,99367.81
2023-08-25T12:45:44.546Z,99357.56
2023-08-25T12:48:13.010Z,99350.75
2023-08-25T12:50:40.007Z,99345.25
2023-08-25T12:53:06.748Z,99341.47
2023-08-25T12:55:33.920Z,99351.91
2023-08-25T12:58:00.935Z,99341.88
2023-08-25T13:00:28.875Z,99346.59
2023-08-25T13:02:56.603Z,99345.72
2023-08-25T13:05:24.562Z,99350.19
2023-08-25T13:07:51.838Z,99345.47
2023-08-25T13:10:18.970Z,99344.00
2023-08-25T13:12:45.786Z,99338.66
2023-08-25T13:15:13.339Z,99338.63
2023-08-25T13:17:41.422Z,99335.97
2023-08-25T13:20:08.884Z,99337.94
2023-08-25T13:22:35.615Z,99331.34
2023-08-25T13:25:02.399Z,99325.41
2023-08-25T13:27:29.595Z,99324.94
2023-08-25T13:29:56.713Z,99326.22
2023-08-25T13:32:23.623Z,99321.50
2023-08-25T13:34:50.317Z,99319.44
2023-08-25T13:37:18.398Z,99321.00
2023-08-25T13:39:45.365Z,99313.34
2023-08-25T13:42:12.084Z,99310.50
2023-08-25T13:44:39.417Z,99320.47
2023-08-25T13:47:08.663Z,99318.84
2023-08-25T13:49:37.211Z,99314.28
2023-08-25T13:52:04.121Z,99309.38
2023-08-25T13:54:31.504Z,99315.25
2023-08-25T13:56:59.037Z,99312.34
2023-08-25T13:59:33.098Z,99305.00
2023-08-25T14:02:06.888Z,99305.56
2023-08-25T14:04:33.629Z,99304.63
2023-08-25T14:07:00.383Z,99299.19
2023-08-25T14:09:27.113Z,99298.28
2023-08-25T14:11:53.870Z,99313.50
2023-08-25T14:14:20.611Z,99304.78
2023-08-25T14:16:47.462Z,99307.44
2023-08-25T14:19:14.501Z,99296.50
2023-08-25T14:21:41.265Z,99298.06
2023-08-25T14:24:08.026Z,99292.66
2023-08-25T14:26:34.790Z,99291.84
2023-08-25T14:29:01.707Z,99292.75
2023-08-25T14:31:28.484Z,99293.09
2023-08-25T14:33:55.353Z,99289.47
2023-08-25T14:36:22.178Z,99283.81
2023-08-25T14:38:48.879Z,99287.03
2023-08-25T14:41:15.603Z,99279.16
2023-08-25T14:43:42.406Z,99277.66
2023-08-25T14:46:10.945Z,99282.69
2023-08-25T14:48:40.350Z,99282.38
2023-08-25T14:51:07.095Z,99283.31
2023-08-25T14:53:33.835Z,99284.81
2023-08-25T14:56:01.077Z,99280.78
2023-08-25T14:58:27.835Z,99278.69
2023-08-25T15:00:57.958Z,99277.22
2023-08-25T15:03:25.672Z,99277.63
2023-08-25T15:05:59.933Z,99274.41
2023-08-25T15:08:26.814Z,99274.75
2023-08-25T15:10:53.539Z,99274.06
2023-08-25T15:13:20.254Z,99267.25
2023-08-25T15:15:47.777Z,99269.19
2023-08-25T15:18:14.609Z,99268.34
2023-08-25T15:20:41.475Z,99275.88
2023-08-25T15:23:08.268Z,99265.03
2023-08-25T15:25:36.859Z,99264.59
2023-08-25T15:28:03.921Z,99269.66
2023-08-25T15:30:30.641Z,99258.94
2023-08-25T15:32:57.411Z,99255.63
2023-08-25T15:35:27.147Z,99257.16
2023-08-25T15:37:55.009Z,99250.19
2023-08-25T15:40:23.903Z,99246.91
2023-08-25T15:42:51.151Z,99254.41
2023-08-25T15:45:18.360Z,99247.81
2023-08-25T15:47:45.278Z,99245.53
2023-08-25T15:50:12.082Z,99245.16
2023-08-25T15:52:38.873Z,99240.03
2023-08-25T15:55:05.990Z,99236.88
2023-08-25T15:57:42.715Z,99248.00
2023-08-25T16:00:10.856Z,99246.50
2023-08-25T16:02:37.674Z,99240.09
2023-08-25T16:05:05.353Z,99245.88
2023-08-25T16:07:32.189Z,99242.88
2023-08-25T16:10:00.579Z,99240.22
2023-08-25T16:12:27.293Z,99245.47
2023-08-25T16:14:54.018Z,99238.78
2023-08-25T16:17:20.976Z,99240.34
2023-08-25T16:19:47.681Z,99241.34
2023-08-25T16:22:14.418Z,99237.44
2023-08-25T16:24:41.148Z,99243.91
2023-08-25T16:27:07.905Z,99241.19
2023-08-25T16:29:34.728Z,99245.47
2023-08-25T16:32:01.498Z,99236.28
2023-08-25T16:34:28.677Z,99237.03
2023-08-25T16:36:56.857Z,99236.03
2023-08-25T16:39:23.705Z,99230.06
2023-08-25T16:41:50.398Z,99236.78
2023-08-25T16:44:17.318Z,99224.91
2023-08-25T16:46:44.179Z,99229.13
2023-08-25T16:49:10.973Z,99228.88
2023-08-25T16:51:37.899Z,99233.06
2023-08-25T16:54:05.786Z,99226.59
2023-08-25T16:56:32.605Z,99226.56
2023-08-25T16:58:59.992Z,99225.31
2023-08-25T17:01:28.010Z,99217.09
2023-08-25T17:03:55.139Z,99232.22
2023-08-25T17:06:22.544Z,99230.19
2023-08-25T17:08:49.398Z,99228.88
2023-08-25T17:11:16.156Z,99229.59
2023-08-25T17:13:42.945Z,99228.81
2023-08-25T17:16:10.862Z,99217.28
2023-08-25T17:18:37.732Z,99220.72
2023-08-25T17:21:04.829Z,99216.84
2023-08-25T17:23:32.288Z,99209.81
2023-08-25T17:25:59.033Z,99213.69
2023-08-25T17:28:28.059Z,99210.34
2023-08-25T17:31:05.390Z,99207.25
2023-08-25T17:33:32.234Z,99205.66
2023-08-25T17:36:06.523Z,99214.41
2023-08-25T17:38:33.810Z,99224.13
2023-08-25T17:41:08.258Z,99227.69
2023-08-25T17:43:35.556Z,99221.31
2023-08-25T17:46:05.628Z,99216.84
2023-08-25T17:48:33.608Z,99227.78
2023-08-25T17:51:00.577Z,99228.94
2023-08-25T17:53:27.932Z,99226.66
2023-08-25T17:55:57.014Z,99218.31
2023-08-25T17:58:23.957Z,99221.44
2023-08-25T18:01:08.911Z,99226.41
2023-08-25T18:03:39.678Z,99233.72
2023-08-25T18:06:06.941Z,99236.06
2023-08-25T18:08:36.167Z,99233.91
2023-08-25T18:11:03.350Z,99240.00
2023-08-25T18:13:31.874Z,99237.09
2023-08-25T18:15:58.964Z,99242.75
2023-08-25T18:18:25.766Z,99243.66
2023-08-25T18:21:03.452Z,99254.88
2023-08-25T18:23:35.443Z,99263.94
2023-08-25T18:26:02.640Z,99269.72
2023-08-25T18:28:29.370Z,99272.13
2023-08-25T18:31:07.843Z,99273.66
2023-08-25T18:33:39.338Z,99278.25
2023-08-25T18:36:06.805Z,99271.09
2023-08-25T18:38:33.558Z,99263.75
2023-08-25T18:41:00.732Z,99266.34
2023-08-25T18:43:27.473Z,99270.13
2023-08-25T18:45:54.727Z,99277.69
2023-08-25T18:48:21.908Z,99267.19
2023-08-25T18:50:48.849Z,99267.41
2023-08-25T18:53:15.773Z,99280.97
2023-08-25T18:55:44.985Z,99279.13
2023-08-25T18:58:11.769Z,99284.13
2023-08-25T19:00:41.680Z,99279.03
2023-08-25T19:03:08.466Z,99283.59
2023-08-25T19:05:35.918Z,99287.66
2023-08-25T19:08:02.601Z,99289.75
2023-08-25T19:10:30.759Z,99287.50
2023-08-25T19:12:57.815Z,99284.81
2023-08-25T19:15:24.741Z,99288.25
2023-08-25T19:17:51.508Z,99288.88
2023-08-25T19:20:20.454Z,99291.25
2023-08-25T19:22:47.501Z,99287.69
2023-08-25T19:25:14.762Z,99293.53
2023-08-25T19:27:41.630Z,99297.31
2023-08-25T19:30:09.175Z,99290.97
2023-08-25T19:32:35.943Z,99290.09
2023-08-25T19:35:03.669Z,99285.59
2023-08-25T19:37:34.919Z,99282.88
2023-08-25T19:40:02.799Z,99278.97
2023-08-25T19:42:29.522Z,99272.66
2023-08-25T19:44:56.263Z,99275.94
2023-08-25T19:47:23.084Z,99271.06
2023-08-25T19:49:50.060Z,99270.63
2023-08-25T19:52:16.836Z,99271.38
2023-08-25T19:54:43.555Z,99278.75
2023-08-25T19:57:10.292Z,99271.97
2023-08-25T19:59:37.002Z,99270.59
2023-08-25T20:02:04.535Z,99265.97
2023-08-25T20:04:31.241Z,99263.84
2023-08-25T20:06:57.947Z,99265.94
2023-08-25T20:09:25.915Z,99262.31
2023-08-25T20:11:52.786Z,99269.16
2023-08-25T20:14:19.523Z,99275.22
2023-08-25T20:16:46.309Z,99279.22
2023-08-25T20:19:13.386Z,99286.81
2023-08-25T20:21:40.114Z,99284.56
2023-08-25T20:24:07.535Z,99279.19
2023-08-25T20:26:34.220Z,99286.97
2023-08-25T20:29:00.938Z,99291.63
2023-08-25T20:31:28.002Z,99291.63
2023-08-25T20:33:54.802Z,99294.28
2023-08-25T20:36:21.591Z,99300.63
2023-08-25T20:38:49.194Z,99302.13
2023-08-25T20:41:16.072Z,99300.91
2023-08-25T20:43:42.816Z,99296.91
2023-08-25T20:46:20.026Z,99293.63
2023-08-25T20:48:48.611Z,99302.03
2023-08-25T20:51:16.802Z,99295.16
2023-08-25T20:53:43.496Z,99298.41
2023-08-25T20:56:10.239Z,99305.19
2023-08-25T20:58:37.082Z,99308.53
2023-08-25T21:01:03.841Z,99307.19
2023-08-25T21:03:30.675Z,99312.69
2023-08-25T21:05:57.759Z,99309.84
2023-08-25T21:08:24.492Z,99311.53
2023-08-25T21:10:52.480Z,99310.59
2023-08-25T21:13:20.076Z,99305.25
2023-08-25T21:15:50.838Z,99313.63
2023-08-25T21:18:17.719Z,99319.88
2023-08-25T21:20:46.922Z,99314.91
2023-08-25T21:23:15.793Z,99322.13
2023-08-25T21:25:49.367Z,99331.09
2023-08-25T21:28:16.103Z,99318.72
2023-08-25T21:30:42.899Z,99319.50
2023-08-25T21:33:09.618Z,99324.44
2023-08-25T21:35:36.380Z,99321.72
2023-08-25T21:38:03.162Z,99330.41
2023-08-25T21:40:29.882Z,99329.56
2023-08-25T21:42:57.091Z,99325.94
2023-08-25T21:45:24.454Z,99331.44
2023-08-25T21:47:51.227Z,99325.31
2023-08-25T21:50:18.121Z,99319.25
2023-08-25T21:52:44.837Z,99322.16
2023-08-25T21:55:12.036Z,99317.75
2023-08-25T21:57:38.734Z,99322.09
2023-08-25T22:00:09.938Z,99325.72
2023-08-25T22:02:36.652Z,99318.19
2023-08-25T22:05:05.342Z,99323.91
2023-08-25T22:07:32.172Z,99322.94
2023-08-25T22:09:58.884Z,99320.91
2023-08-25T22:12:25.600Z,99323.81
2023-08-25T22:14:52.943Z,99317.75
2023-08-25T22:17:19.834Z,99304.81
2023-08-25T22:19:56.664Z,99307.84
2023-08-25T22:22:31.437Z,99309.47
2023-08-25T22:24:58.645Z,99316.72
2023-08-25T22:27:25.379Z,99311.03
2023-08-25T22:29:52.121Z,99300.38
2023-08-25T22:34:14.714Z,99304.59
2023-08-25T22:35:06.609Z,99301.22
2023-08-25T22:37:34.337Z,99303.47
2023-08-25T22:40:01.423Z,99295.09
2023-08-25T22:42:28.154Z,99290.66
2023-08-25T22:44:54.846Z,99295.19
2023-08-25T22:47:21.577Z,99287.13
2023-08-25T22:49:49.121Z,99293.47
2023-08-25T22:52:15.890Z,99290.66
2023-08-25T22:54:42.573Z,99285.84
2023-08-25T22:57:09.378Z,99284.31
2023-08-25T22:59:41.733Z,99282.59
2023-08-25T23:02:08.697Z,99281.19
2023-08-25T23:04:35.541Z,99281.38
2023-08-25T23:07:02.240Z,99280.66
2023-08-25T23:09:29.029Z,99277.50
2023-08-25T23:11:55.736Z,99266.09
2023-08-25T23:14:22.478Z,99259.19
2023-08-25T23:16:49.168Z,99254.91
2023-08-25T23:19:16.569Z,99258.56
2023-08-25T23:21:43.402Z,99257.72
2023-08-25T23:24:10.540Z,99260.69
2023-08-25T23:26:37.379Z,99265.88
2023-08-25T23:29:04.072Z,99270.75
2023-08-25T23:31:30.940Z,99274.91
2023-08-25T23:33:57.679Z,99276.44
2023-08-25T23:36:24.405Z,99271.06
2023-08-25T23:38:51.775Z,99279.47
2023-08-25T23:41:18.496Z,99275.47
2023-08-25T23:43:45.234Z,99275.13
2023-08-25T23:46:11.985Z,99270.94
2023-08-25T23:48:38.704Z,99258.34
2023-08-25T23:51:05.471Z,99253.94
2023-08-25T23:53:32.182Z,99252.09
2023-08-25T23:55:59.018Z,99250.50
2023-08-25T23:58:26.382Z,99244.34
